DUNK1: Neosho River Nr Dunlap, KS

Data processed at Thu May 23 2019 23:50


All information presented herein is the property of the government of the United States of America and may be revised or deleted at any time without prior notice.
Dissemination of this information without the expressed written consent of the Public Affairs Office, Tulsa District U.S. Army Corps of Engineers is strictly prohibited.
These data are gathered electronically and, as presented, have not undergone any form of quality control. These data are not guaranteed to be valid or correct.
Go to home page.
Go to station list.
Go to home page.

Upstream stations:

Downstream station:
Previous Day
Next Day
Current Day
    
SHEF ID:       DUNK1     NEOSHO R NR DUNLAP, KS
STATION TYPE:  
Regulating: Stage =    26.00, Flow =     5679

               PRECIP     STAGE  RIV-FLOW  BAT-LOAD
                   in        ft       cfs      volt
              Ccp-Rev   Ccp-Rev   Ccp-Rev   Ccp-Rev
(US/Central)
05/23 00:00      0.00     19.96      2388     12.89
05/23 01:00      0.00     19.82      2340     12.89
05/23 02:00      0.00     19.69      2296     12.89
05/23 03:00      0.00     19.56      2239     12.83
05/23 04:00      0.00     19.46      2196     12.83
05/23 05:00      0.00     19.35      2150     12.83
05/23 06:00      0.00     19.19      2084     12.83
05/23 07:00      0.00     19.17      2076     12.83
05/23 08:00      0.00     19.04      2024     13.07
05/23 09:00      0.00     18.96      1992     13.00
05/23 10:00      0.00     18.87      1956     13.42
05/23 11:00      0.00     18.86      1953     13.48
05/23 12:00      0.00     18.76      1914     13.59
05/23 13:00      0.00     18.66      1876     13.36
05/23 14:00      0.00     18.63      1865     13.18
05/23 15:00      0.00     18.55      1835     13.12
05/23 16:00      0.00     18.47      1805     13.07
05/23 17:00      0.00     18.44      1794     13.12
05/23 18:00      0.00     18.28      1736     13.07
05/23 19:00      0.00     18.28      1736     13.00
05/23 20:00      0.00     18.19      1704     12.95
05/23 21:00      0.00     18.18      1701     12.95
05/23 22:00      0.00     18.10      1673     12.89
05/23 23:00      0.00     18.03      1649     12.89